Time;durP1;ratioP1;P1;durP2;ratioP2;P2;SDS_P1;SDS_P2;PMS_P1;PMS_P2;Temp;Humidity;BMP_temperature;BMP_pressure;BME280_temperature;BME280_humidity;BME280_pressure;Samples;Min_cycle;Max_cycle;Signal;HPM_P1;HPM_P2
2021/01/29 15:58:20;;;;;;;8.73;2.35;;;21.70;55.70;;;;;;5146036;27;20102;-46
2021/01/29 16:00:49;;;;;;;6.40;1.98;;;21.30;55.10;;;;;;5145692;27;20117;-46
2021/01/29 16:03:49;;;;;;;3.55;1.77;;;21.30;54.80;;;;;;5145600;27;20031;-48
2021/01/29 16:06:32;;;;;;;4.68;1.35;;;21.30;54.30;;;;;;5126346;27;20031;-48
2021/01/29 16:09:22;;;;;;;6.10;1.70;;;21.30;54.10;;;;;;5125257;27;20073;-46
2021/01/29 16:11:50;;;;;;;4.40;1.77;;;21.40;53.70;;;;;;5123942;28;20023;-47
2021/01/29 16:14:21;;;;;;;2.67;1.60;;;21.40;53.40;;;;;;5117110;28;20051;-47
2021/01/29 16:16:48;;;;;;;4.20;1.38;;;21.50;53.30;;;;;;5112344;28;20080;-49
2021/01/29 16:19:25;;;;;;;4.53;1.58;;;21.50;53.10;;;;;;5124579;28;20034;-50
2021/01/29 16:21:52;;;;;;;4.22;1.70;;;21.50;53.00;;;;;;5124567;28;20031;-51
2021/01/29 16:24:20;;;;;;;5.93;1.50;;;21.50;52.90;;;;;;5124017;28;20077;-46
2021/01/29 16:26:54;;;;;;;3.22;1.85;;;21.50;52.80;;;;;;5125128;28;20059;-52
2021/01/29 16:29:29;;;;;;;9.10;2.15;;;21.50;52.80;;;;;;5125019;28;20963;-57
2021/01/29 16:32:03;;;;;;;4.63;1.70;;;21.60;52.80;;;;;;5124597;28;20080;-53
2021/01/29 16:34:33;;;;;;;7.50;1.67;;;21.60;52.60;;;;;;5124352;28;20038;-54
2021/01/29 16:37:11;;;;;;;7.72;1.70;;;21.50;52.60;;;;;;5114280;28;20577;-54
2021/01/29 16:39:45;;;;;;;4.40;2.25;;;21.60;52.60;;;;;;5113921;28;20045;-51
2021/01/29 16:42:31;;;;;;;6.25;1.70;;;21.50;52.50;;;;;;5124337;28;20506;-55
2021/01/29 16:45:03;;;;;;;4.43;1.95;;;21.50;52.50;;;;;;5124090;28;20019;-54
2021/01/29 16:47:42;;;;;;;7.13;1.92;;;21.60;52.50;;;;;;5117322;28;20035;-50
2021/01/29 16:50:12;;;;;;;4.63;2.10;;;21.60;52.40;;;;;;5123650;28;20020;-53
2021/01/29 16:52:44;;;;;;;5.47;1.90;;;21.50;52.30;;;;;;5109626;28;20035;-52
2021/01/29 16:55:19;;;;;;;7.22;2.28;;;21.60;52.30;;;;;;5118505;28;20591;-53
2021/01/29 16:57:56;;;;;;;4.00;2.28;;;21.60;52.30;;;;;;5107902;28;20036;-53
2021/01/29 17:00:24;;;;;;;4.03;2.15;;;21.50;52.20;;;;;;5107546;28;20038;-48
2021/01/29 17:02:50;;;;;;;3.83;1.48;;;21.50;52.20;;;;;;5123727;28;20023;-53
2021/01/29 17:05:26;;;;;;;5.50;1.85;;;21.50;52.20;;;;;;5123936;28;20019;-53
2021/01/29 17:07:53;;;;;;;4.25;1.52;;;21.50;52.10;;;;;;5119453;27;20079;-53
2021/01/29 17:10:21;;;;;;;13.65;2.33;;;21.50;52.10;;;;;;5109665;28;20550;-53
2021/01/29 17:12:50;;;;;;;4.57;1.95;;;21.50;52.00;;;;;;5083357;28;20066;-47
2021/01/29 17:15:23;;;;;;;7.03;2.20;;;21.50;52.00;;;;;;5104670;28;20717;-50
2021/01/29 17:17:53;;;;;;;5.70;2.33;;;21.60;52.10;;;;;;5092665;28;20440;-49
2021/01/29 17:20:21;;;;;;;5.05;2.10;;;21.60;52.10;;;;;;5090102;28;20062;-46
2021/01/29 17:22:49;;;;;;;8.50;2.30;;;21.60;52.00;;;;;;5101919;28;20491;-50
2021/01/29 17:25:41;;;;;;;4.88;1.95;;;21.50;52.00;;;;;;5108834;28;20023;-53
2021/01/29 17:28:21;;;;;;;4.97;1.98;;;21.60;52.00;;;;;;5098659;28;20461;-47
2021/01/29 17:30:48;;;;;;;5.28;2.10;;;21.60;52.00;;;;;;5107692;28;20105;-54
2021/01/29 17:33:31;;;;;;;4.70;2.13;;;21.60;52.00;;;;;;5108239;28;20035;-50
2021/01/29 17:36:12;;;;;;;8.82;2.85;;;21.60;52.00;;;;;;5108149;28;20069;-51
2021/01/29 17:38:39;;;;;;;4.05;1.95;;;21.60;52.00;;;;;;5107958;28;20444;-49
2021/01/29 17:41:26;;;;;;;6.65;2.88;;;21.60;52.00;;;;;;5108526;28;20143;-48
2021/01/29 17:43:57;;;;;;;4.18;2.10;;;21.60;52.00;;;;;;5089913;28;20443;-49
2021/01/29 17:46:27;;;;;;;4.28;1.60;;;21.60;52.00;;;;;;5096868;28;20020;-48
2021/01/29 17:49:19;;;;;;;7.95;2.15;;;21.50;51.90;;;;;;5101300;28;20041;-55
2021/01/29 17:51:49;;;;;;;8.52;2.00;;;21.50;51.90;;;;;;5107498;28;20378;-47
2021/01/29 17:54:15;;;;;;;14.40;3.10;;;21.60;52.00;;;;;;5106630;28;20426;-51
2021/01/29 17:56:46;;;;;;;10.40;2.58;;;21.50;51.90;;;;;;5087573;28;20101;-48
2021/01/29 17:59:12;;;;;;;5.93;2.08;;;21.50;51.70;;;;;;5075248;28;20029;-50
2021/01/29 18:01:47;;;;;;;8.95;2.15;;;21.50;51.70;;;;;;5088078;28;20557;-56
2021/01/29 18:04:27;;;;;;;3.63;1.67;;;21.50;51.70;;;;;;5090335;28;20032;-48
2021/01/29 18:06:58;;;;;;;5.85;2.17;;;21.50;51.80;;;;;;5090161;28;20476;-56
2021/01/29 18:09:30;;;;;;;5.32;1.85;;;21.50;51.80;;;;;;5090271;28;20028;-51
2021/01/29 18:12:10;;;;;;;6.65;2.05;;;21.50;52.40;;;;;;5088404;28;20097;-54
2021/01/29 18:14:41;;;;;;;7.70;1.98;;;21.50;51.80;;;;;;5083203;28;20115;-52
2021/01/29 18:17:13;;;;;;;4.90;1.90;;;21.50;51.80;;;;;;5094251;28;20035;-55
2021/01/29 18:19:52;;;;;;;5.80;2.10;;;21.50;51.80;;;;;;5088237;28;20019;-52
2021/01/29 18:22:23;;;;;;;5.15;2.05;;;21.50;51.90;;;;;;5093896;28;20028;-56
2021/01/29 18:24:51;;;;;;;5.90;2.75;;;21.50;51.90;;;;;;5093987;28;20505;-57
2021/01/29 18:27:18;;;;;;;3.92;2.00;;;21.50;51.90;;;;;;5094119;28;20454;-53
2021/01/29 18:29:46;;;;;;;6.60;2.63;;;21.50;51.90;;;;;;5088551;28;20396;-57
2021/01/29 18:32:16;;;;;;;7.68;2.33;;;21.50;52.00;;;;;;5080147;28;20024;-54
2021/01/29 18:34:44;;;;;;;7.43;2.30;;;21.50;52.00;;;;;;5078661;28;20035;-50
2021/01/29 18:37:10;;;;;;;7.10;2.30;;;21.50;52.00;;;;;;5092635;28;20027;-54
2021/01/29 18:39:37;;;;;;;9.52;2.35;;;21.50;52.00;;;;;;5092802;28;20035;-57
2021/01/29 18:42:05;;;;;;;5.82;1.80;;;21.50;52.00;;;;;;5092081;28;20028;-53
2021/01/29 18:44:32;;;;;;;6.32;2.10;;;21.50;52.00;;;;;;5092994;28;20031;-51
2021/01/29 18:46:58;;;;;;;7.50;2.20;;;21.50;51.90;;;;;;5093336;28;20028;-51
2021/01/29 18:49:24;;;;;;;6.85;2.05;;;21.50;51.90;;;;;;5076251;28;20039;-53
2021/01/29 18:51:50;;;;;;;7.63;2.50;;;21.50;51.90;;;;;;5092874;28;20412;-50
2021/01/29 18:54:16;;;;;;;9.20;2.53;;;21.50;51.90;;;;;;5092665;28;20488;-55
2021/01/29 18:56:42;;;;;;;4.97;2.65;;;21.50;51.90;;;;;;5099750;28;20069;-56
2021/01/29 18:59:08;;;;;;;5.63;2.17;;;21.50;51.90;;;;;;5112763;28;20027;-55
2021/01/29 19:01:34;;;;;;;7.30;2.00;;;21.50;52.00;;;;;;5112384;28;20054;-57
2021/01/29 19:04:00;;;;;;;9.02;2.67;;;21.50;52.10;;;;;;5112777;28;20164;-50
2021/01/29 19:06:27;;;;;;;7.03;2.38;;;21.40;51.90;;;;;;5111689;28;20024;-50
2021/01/29 19:08:54;;;;;;;3.95;1.92;;;21.50;52.00;;;;;;5112679;28;20399;-53
2021/01/29 19:11:21;;;;;;;7.95;2.25;;;21.40;51.90;;;;;;5112503;28;20504;-55
2021/01/29 19:13:47;;;;;;;5.38;2.17;;;21.40;52.00;;;;;;5112950;28;20111;-55
2021/01/29 19:16:18;;;;;;;5.15;2.17;;;21.50;52.00;;;;;;5112815;28;20474;-48
2021/01/29 19:18:44;;;;;;;5.22;2.10;;;21.50;52.10;;;;;;5112726;28;20051;-57
2021/01/29 19:21:12;;;;;;;6.13;2.25;;;21.40;52.00;;;;;;5112227;28;20053;-52
2021/01/29 19:23:39;;;;;;;7.47;2.45;;;21.50;52.10;;;;;;5111872;28;20039;-51
2021/01/29 19:26:05;;;;;;;10.70;2.60;;;21.50;52.20;;;;;;5106955;28;20020;-50
2021/01/29 19:28:31;;;;;;;6.35;2.60;;;21.50;52.30;;;;;;5112635;28;20516;-50
2021/01/29 19:30:57;;;;;;;6.07;2.05;;;21.40;52.20;;;;;;5112032;28;20024;-50
2021/01/29 19:33:24;;;;;;;7.97;2.13;;;21.50;52.70;;;;;;5112005;28;20510;-51
2021/01/29 19:35:52;;;;;;;9.32;2.67;;;21.50;52.50;;;;;;5112470;28;20028;-54
2021/01/29 19:38:19;;;;;;;8.13;2.83;;;21.50;52.50;;;;;;5112069;28;20055;-54
2021/01/29 19:40:44;;;;;;;5.05;2.08;;;21.50;52.40;;;;;;5112392;28;20023;-51
2021/01/29 19:43:10;;;;;;;6.20;2.00;;;21.40;52.30;;;;;;5112219;28;20569;-53
2021/01/29 19:45:37;;;;;;;7.20;2.38;;;21.50;52.30;;;;;;5112419;28;20538;-51
2021/01/29 19:48:07;;;;;;;6.30;2.35;;;21.40;52.30;;;;;;5111974;28;20055;-47
2021/01/29 19:50:34;;;;;;;4.53;2.65;;;21.50;52.30;;;;;;5112383;28;20031;-50
2021/01/29 19:53:01;;;;;;;5.05;2.10;;;21.40;52.20;;;;;;5112104;28;20586;-51
2021/01/29 19:55:28;;;;;;;6.72;2.65;;;21.40;52.30;;;;;;5112184;28;20032;-53
2021/01/29 19:57:54;;;;;;;6.68;2.15;;;21.40;52.30;;;;;;5108260;28;20044;-51
2021/01/29 20:00:24;;;;;;;5.10;2.20;;;21.40;52.30;;;;;;5107272;28;20023;-49
2021/01/29 20:02:50;;;;;;;5.95;2.50;;;21.40;52.30;;;;;;5093738;28;20036;-51
2021/01/29 20:05:18;;;;;;;5.32;2.38;;;21.40;52.40;;;;;;5112037;28;20023;-53
2021/01/29 20:07:45;;;;;;;3.95;1.70;;;21.40;52.30;;;;;;5111893;28;20404;-50
2021/01/29 20:10:12;;;;;;;5.65;2.30;;;21.40;52.50;;;;;;5111884;28;20553;-52
2021/01/29 20:12:40;;;;;;;7.30;2.45;;;21.40;52.40;;;;;;5111953;28;20032;-55
2021/01/29 20:15:08;;;;;;;8.52;2.40;;;21.40;52.50;;;;;;5112261;28;20408;-50
2021/01/29 20:17:34;;;;;;;4.80;2.30;;;21.40;52.80;;;;;;5111532;28;20056;-53
2021/01/29 20:20:00;;;;;;;9.20;2.75;;;21.40;52.60;;;;;;5111812;28;20051;-52
2021/01/29 20:22:27;;;;;;;6.25;2.63;;;21.40;52.50;;;;;;5111656;28;20035;-51
2021/01/29 20:24:53;;;;;;;13.50;2.30;;;21.40;52.80;;;;;;5112008;28;20024;-47
2021/01/29 20:27:19;;;;;;;5.78;2.40;;;21.40;52.70;;;;;;5105845;28;20084;-52
2021/01/29 20:29:45;;;;;;;5.40;2.22;;;21.40;52.80;;;;;;5111926;28;20020;-50
2021/01/29 20:32:12;;;;;;;5.07;2.40;;;21.40;53.10;;;;;;5112035;28;20019;-46
2021/01/29 20:34:39;;;;;;;10.07;2.70;;;21.40;52.90;;;;;;5112028;28;20077;-51
2021/01/29 20:37:05;;;;;;;10.40;2.78;;;21.30;53.00;;;;;;5111670;28;20102;-50
2021/01/29 20:39:31;;;;;;;8.27;2.00;;;21.40;53.00;;;;;;5111684;28;20116;-53
2021/01/29 20:41:58;;;;;;;10.60;2.95;;;21.40;53.10;;;;;;5111785;28;20024;-51
2021/01/29 20:44:25;;;;;;;7.03;2.30;;;21.40;53.00;;;;;;5114559;28;20023;-52
2021/01/29 20:46:51;;;;;;;8.65;2.60;;;21.40;52.80;;;;;;5115567;28;20028;-54
2021/01/29 20:49:19;;;;;;;4.95;2.35;;;21.30;52.80;;;;;;5115253;28;20030;-51
2021/01/29 20:51:46;;;;;;;6.00;2.00;;;21.40;53.00;;;;;;5097027;28;20039;-57
2021/01/29 20:54:13;;;;;;;9.30;2.33;;;21.30;52.90;;;;;;5115187;28;20028;-49
2021/01/29 20:56:39;;;;;;;7.45;2.35;;;21.30;52.80;;;;;;5115298;28;20509;-54
2021/01/29 20:59:05;;;;;;;11.55;2.65;;;21.30;52.90;;;;;;5115250;28;20145;-47
2021/01/29 21:01:32;;;;;;;8.82;2.72;;;21.30;52.70;;;;;;5115000;28;20028;-50
2021/01/29 21:03:58;;;;;;;8.15;2.95;;;21.30;52.80;;;;;;5115332;28;20024;-50
2021/01/29 21:06:24;;;;;;;6.18;2.75;;;21.30;52.80;;;;;;5114753;28;20106;-52
2021/01/29 21:08:50;;;;;;;9.00;2.72;;;21.30;52.80;;;;;;5115666;28;20023;-49
2021/01/29 21:11:16;;;;;;;5.40;1.90;;;21.30;53.10;;;;;;5116206;28;20452;-54
2021/01/29 21:13:41;;;;;;;3.92;1.73;;;21.30;53.20;;;;;;5116237;28;20034;-49
2021/01/29 21:16:07;;;;;;;7.40;2.53;;;21.30;53.20;;;;;;5115987;28;20035;-51
2021/01/29 21:18:34;;;;;;;6.45;2.42;;;21.30;53.10;;;;;;5116008;28;20024;-53
2021/01/29 21:21:01;;;;;;;6.65;2.47;;;21.30;53.30;;;;;;5115852;28;20027;-53
2021/01/29 21:23:30;;;;;;;5.78;2.85;;;21.30;53.20;;;;;;5116022;28;20039;-51
2021/01/29 21:25:57;;;;;;;7.95;2.33;;;21.30;53.10;;;;;;5115562;28;20028;-51
2021/01/29 21:28:23;;;;;;;5.80;2.10;;;21.30;53.10;;;;;;5115866;28;20032;-51
2021/01/29 21:30:49;;;;;;;7.28;2.03;;;21.20;53.00;;;;;;5115601;28;20054;-56
2021/01/29 21:33:15;;;;;;;4.68;1.90;;;21.20;53.10;;;;;;5115654;28;20098;-54
2021/01/29 21:35:47;;;;;;;8.32;2.30;;;21.30;53.10;;;;;;5105351;28;20038;-56
2021/01/29 21:38:20;;;;;;;4.70;2.33;;;21.20;53.10;;;;;;5112623;28;20027;-53
2021/01/29 21:40:46;;;;;;;7.63;2.08;;;21.20;53.00;;;;;;5087595;28;20500;-51
2021/01/29 21:43:12;;;;;;;7.57;2.42;;;21.20;53.10;;;;;;5115455;28;20094;-50
2021/01/29 21:45:41;;;;;;;7.43;2.20;;;21.20;53.00;;;;;;5115654;28;20080;-54
2021/01/29 21:48:13;;;;;;;6.38;2.00;;;21.20;53.00;;;;;;5115674;28;20084;-50
2021/01/29 21:50:40;;;;;;;3.53;1.95;;;21.20;53.00;;;;;;5115704;28;20038;-53
2021/01/29 21:53:05;;;;;;;6.13;1.88;;;21.20;52.90;;;;;;5115518;28;20369;-54
2021/01/29 21:55:32;;;;;;;5.47;1.73;;;21.20;53.00;;;;;;5114946;28;20038;-51
2021/01/29 21:57:58;;;;;;;5.32;1.88;;;21.20;53.00;;;;;;5114661;28;20046;-54
2021/01/29 22:00:25;;;;;;;8.15;2.25;;;21.20;53.00;;;;;;5097046;28;20051;-50
2021/01/29 22:02:51;;;;;;;6.35;2.15;;;21.20;53.00;;;;;;5115231;28;20020;-53
2021/01/29 22:05:19;;;;;;;6.30;2.03;;;21.20;53.00;;;;;;5115457;28;20437;-57
2021/01/29 22:07:45;;;;;;;5.65;2.90;;;21.10;53.00;;;;;;5115418;28;20023;-49
2021/01/29 22:10:13;;;;;;;5.60;2.53;;;21.10;52.90;;;;;;5115255;28;20058;-50
2021/01/29 22:12:40;;;;;;;3.85;2.00;;;21.10;52.90;;;;;;5114981;28;20551;-55
2021/01/29 22:15:08;;;;;;;5.45;1.90;;;21.10;53.00;;;;;;5115200;28;20031;-50
2021/01/29 22:17:34;;;;;;;5.30;2.00;;;21.10;53.00;;;;;;5114886;28;20023;-48
2021/01/29 22:20:00;;;;;;;6.43;2.15;;;21.10;53.00;;;;;;5115046;28;20038;-50
2021/01/29 22:22:25;;;;;;;4.43;2.00;;;21.10;53.00;;;;;;5115044;28;20028;-54
2021/01/29 22:24:51;;;;;;;5.03;2.47;;;21.10;52.90;;;;;;5114611;28;20020;-52
2021/01/29 22:27:20;;;;;;;3.88;1.90;;;21.10;53.00;;;;;;5114343;28;20027;-51
2021/01/29 22:29:47;;;;;;;2.72;1.70;;;21.10;53.00;;;;;;5114613;28;20015;-54
2021/01/29 22:32:13;;;;;;;4.32;1.77;;;21.10;53.00;;;;;;5114642;28;20563;-53
2021/01/29 22:34:41;;;;;;;6.13;1.80;;;21.10;53.00;;;;;;5114688;28;20028;-49
2021/01/29 22:37:08;;;;;;;2.65;1.70;;;21.00;53.00;;;;;;5114474;28;20169;-54
2021/01/29 22:39:34;;;;;;;2.75;1.50;;;21.10;53.10;;;;;;5114568;28;20095;-54
2021/01/29 22:42:00;;;;;;;3.83;1.80;;;21.00;53.20;;;;;;5114639;28;20372;-55
2021/01/29 22:44:26;;;;;;;3.15;1.80;;;21.00;53.10;;;;;;5096451;28;20026;-53
2021/01/29 22:46:52;;;;;;;5.15;1.55;;;21.00;53.10;;;;;;5114564;28;20065;-51
2021/01/29 22:49:18;;;;;;;2.65;1.42;;;21.00;53.10;;;;;;5096193;28;20066;-54
2021/01/29 22:51:48;;;;;;;3.13;1.83;;;21.00;53.10;;;;;;5114309;28;20031;-51
2021/01/29 22:54:15;;;;;;;3.80;1.70;;;21.00;53.10;;;;;;5114310;28;20034;-53
2021/01/29 22:56:45;;;;;;;3.55;1.35;;;21.00;53.00;;;;;;5113824;28;20044;-52
2021/01/29 22:59:12;;;;;;;3.63;1.77;;;21.00;53.10;;;;;;5114062;28;20019;-49
